Time;durP1;ratioP1;P1;durP2;ratioP2;P2;SDS_P1;SDS_P2;PMS_P1;PMS_P2;Temp;Humidity;BMP_temperature;BMP_pressure;BME280_temperature;BME280_humidity;BME280_pressure;Samples;Min_cycle;Max_cycle;Signal;HPM_P1;HPM_P2
2021/09/22 00:01:38;;;;;;;14.97;9.03;;;14.10;99.90;;;;;;5055734;28;20219;-82
2021/09/22 00:04:05;;;;;;;14.27;9.30;;;14.00;99.90;;;;;;5056245;28;20234;-82
2021/09/22 00:06:32;;;;;;;14.90;8.90;;;14.00;99.90;;;;;;5056119;28;20262;-83
2021/09/22 00:08:59;;;;;;;16.87;8.57;;;14.00;99.90;;;;;;5055667;28;20306;-82
2021/09/22 00:11:26;;;;;;;16.43;9.07;;;13.90;99.90;;;;;;5054715;28;20227;-83
2021/09/22 00:13:53;;;;;;;16.60;9.70;;;14.00;99.90;;;;;;5057244;28;20238;-81
2021/09/22 00:16:20;;;;;;;17.17;10.13;;;13.90;99.90;;;;;;5056041;28;20260;-82
2021/09/22 00:18:48;;;;;;;14.57;9.93;;;14.00;99.90;;;;;;5055464;28;20233;-82
2021/09/22 00:21:15;;;;;;;16.03;9.37;;;14.00;99.90;;;;;;5056042;28;20230;-82
2021/09/22 00:23:42;;;;;;;16.33;9.90;;;14.00;99.90;;;;;;5057544;28;20241;-82
2021/09/22 00:26:09;;;;;;;18.33;9.83;;;13.90;99.90;;;;;;5055491;28;20237;-82
2021/09/22 00:28:36;;;;;;;15.37;9.43;;;13.90;99.90;;;;;;5050182;28;20263;-82
2021/09/22 00:31:03;;;;;;;14.70;9.53;;;13.90;99.90;;;;;;5039078;28;20210;-82
2021/09/22 00:33:30;;;;;;;18.67;10.67;;;13.80;99.90;;;;;;5056905;28;20217;-82
2021/09/22 00:35:58;;;;;;;14.90;9.53;;;13.80;99.90;;;;;;5054616;28;20245;-84
2021/09/22 00:38:25;;;;;;;14.10;9.30;;;13.80;99.90;;;;;;5056810;28;20614;-84
2021/09/22 00:40:52;;;;;;;16.67;10.13;;;13.80;99.90;;;;;;5055291;28;20223;-82
2021/09/22 00:43:19;;;;;;;16.67;9.97;;;13.70;99.90;;;;;;5055644;28;20191;-82
2021/09/22 00:45:46;;;;;;;17.80;10.00;;;13.70;99.90;;;;;;5053626;28;20223;-83
2021/09/22 00:48:13;;;;;;;18.70;10.30;;;13.60;99.90;;;;;;5054390;28;20223;-82
2021/09/22 00:50:40;;;;;;;17.77;9.70;;;13.60;99.90;;;;;;5054786;28;20622;-83
2021/09/22 00:53:10;;;;;;;17.73;11.33;;;13.60;99.90;;;;;;5043251;28;20196;-83
2021/09/22 00:55:38;;;;;;;17.03;11.03;;;13.60;99.90;;;;;;5057048;28;20248;-82
2021/09/22 00:58:10;;;;;;;18.80;10.73;;;13.50;99.90;;;;;;5054450;28;20222;-83
2021/09/22 01:00:38;;;;;;;17.13;10.50;;;13.40;99.90;;;;;;5053583;28;20238;-82
2021/09/22 01:03:05;;;;;;;18.90;11.17;;;13.40;99.90;;;;;;5055085;28;20199;-82
2021/09/22 01:05:34;;;;;;;17.93;10.93;;;13.40;99.90;;;;;;5052769;28;20191;-82
2021/09/22 01:08:01;;;;;;;21.03;10.73;;;13.30;99.90;;;;;;5056028;28;20588;-81
2021/09/22 01:10:31;;;;;;;16.60;10.63;;;13.40;99.90;;;;;;5054394;28;20263;-82
2021/09/22 01:12:58;;;;;;;18.30;11.70;;;13.40;99.90;;;;;;5058080;28;20203;-83
2021/09/22 01:15:33;;;;;;;16.27;10.40;;;13.30;99.90;;;;;;5057889;28;20671;-82
2021/09/22 01:18:01;;;;;;;19.47;10.57;;;13.30;99.90;;;;;;5058854;28;20309;-82
2021/09/22 01:20:31;;;;;;;19.43;12.00;;;13.20;99.90;;;;;;5057814;28;20482;-82
2021/09/22 01:23:01;;;;;;;19.03;10.77;;;13.20;99.90;;;;;;5058608;28;20217;-82
2021/09/22 01:25:29;;;;;;;18.40;11.67;;;13.30;99.90;;;;;;5056004;28;20203;-82
2021/09/22 01:27:59;;;;;;;17.95;11.60;;;13.20;99.90;;;;;;5056069;28;20385;-83
2021/09/22 01:30:26;;;;;;;20.00;11.93;;;13.20;99.90;;;;;;5058510;28;20901;-83
2021/09/22 01:32:55;;;;;;;21.80;12.23;;;13.10;99.90;;;;;;5056338;28;20230;-82
2021/09/22 01:35:22;;;;;;;21.47;11.93;;;13.20;99.90;;;;;;5058178;28;20225;-83
2021/09/22 01:37:50;;;;;;;20.80;12.20;;;13.20;99.90;;;;;;5057184;28;20223;-83
2021/09/22 01:40:20;;;;;;;18.63;11.17;;;13.20;99.90;;;;;;5053983;28;20241;-83
2021/09/22 01:42:47;;;;;;;18.93;11.70;;;13.20;99.90;;;;;;5047118;28;20245;-82
2021/09/22 01:45:16;;;;;;;18.53;11.63;;;13.20;99.90;;;;;;5054423;28;20679;-83
2021/09/22 01:47:44;;;;;;;18.13;11.00;;;13.20;99.90;;;;;;5057656;28;20657;-82
2021/09/22 01:50:14;;;;;;;19.33;12.20;;;13.10;99.90;;;;;;5051774;28;20254;-83
2021/09/22 01:52:42;;;;;;;20.53;12.33;;;13.10;99.90;;;;;;5052795;28;20234;-83
2021/09/22 01:55:10;;;;;;;20.80;11.87;;;13.20;99.90;;;;;;5056422;28;20257;-83
2021/09/22 01:57:38;;;;;;;18.30;11.90;;;13.20;99.90;;;;;;5054630;28;20226;-83
2021/09/22 02:00:06;;;;;;;19.93;12.10;;;13.20;99.90;;;;;;5057274;28;20223;-82
2021/09/22 02:02:33;;;;;;;20.17;12.33;;;13.20;99.90;;;;;;5045671;28;20296;-82
2021/09/22 02:05:01;;;;;;;18.53;11.37;;;13.20;99.90;;;;;;5046573;28;20281;-83
2021/09/22 02:07:28;;;;;;;21.40;13.23;;;13.30;99.90;;;;;;5047675;28;20226;-83
2021/09/22 02:09:55;;;;;;;19.13;11.90;;;13.20;99.90;;;;;;5055324;28;20326;-82
2021/09/22 02:12:22;;;;;;;20.73;12.03;;;13.20;99.90;;;;;;5046177;28;20234;-82
2021/09/22 02:14:50;;;;;;;18.67;12.70;;;13.10;99.90;;;;;;5047174;28;20231;-81
2021/09/22 02:17:17;;;;;;;22.07;13.57;;;13.30;99.90;;;;;;5054210;28;20646;-83
2021/09/22 02:19:44;;;;;;;19.13;12.27;;;13.30;99.90;;;;;;5051704;28;20226;-82
2021/09/22 02:22:11;;;;;;;21.70;12.10;;;13.30;99.90;;;;;;5053883;28;20241;-82
2021/09/22 02:24:42;;;;;;;20.57;13.00;;;13.20;99.90;;;;;;5051998;28;20226;-83
2021/09/22 02:27:09;;;;;;;18.90;12.20;;;13.20;99.90;;;;;;5052195;28;20223;-83
2021/09/22 02:29:37;;;;;;;20.57;12.50;;;13.30;99.90;;;;;;5050670;28;20774;-82
2021/09/22 02:32:06;;;;;;;20.23;11.50;;;13.20;99.90;;;;;;5055375;28;20238;-83
2021/09/22 02:34:33;;;;;;;18.77;12.70;;;13.20;99.90;;;;;;5047172;28;20229;-82
2021/09/22 02:37:00;;;;;;;22.30;12.40;;;13.20;99.90;;;;;;5047428;28;20255;-82
2021/09/22 02:39:27;;;;;;;21.53;11.80;;;13.20;99.90;;;;;;5041638;28;20203;-82
2021/09/22 02:41:54;;;;;;;19.50;12.53;;;13.30;99.90;;;;;;5044690;28;20210;-83
2021/09/22 02:44:21;;;;;;;23.47;13.43;;;13.20;99.90;;;;;;5034702;28;20440;-82
2021/09/22 02:46:48;;;;;;;18.97;13.20;;;13.30;99.90;;;;;;5050160;28;20316;-82
2021/09/22 02:49:16;;;;;;;19.30;12.23;;;13.30;99.90;;;;;;5054289;28;20219;-82
2021/09/22 02:51:43;;;;;;;20.03;12.67;;;13.30;99.90;;;;;;5050701;28;20235;-82
2021/09/22 02:54:11;;;;;;;22.63;13.33;;;13.30;99.90;;;;;;5046687;28;20285;-82
2021/09/22 02:56:38;;;;;;;20.37;12.17;;;13.20;99.90;;;;;;5048716;28;20649;-82
2021/09/22 02:59:05;;;;;;;20.53;12.03;;;13.20;99.90;;;;;;5054155;28;20223;-82
2021/09/22 03:01:32;;;;;;;23.17;13.83;;;13.20;99.90;;;;;;5053429;28;20272;-83
2021/09/22 03:03:59;;;;;;;21.07;12.53;;;13.30;99.90;;;;;;5054052;28;20242;-82
2021/09/22 03:06:27;;;;;;;21.63;13.30;;;13.30;99.90;;;;;;5053963;28;20223;-82
2021/09/22 03:08:54;;;;;;;20.40;12.73;;;13.30;99.90;;;;;;5052406;28;20257;-83
2021/09/22 03:11:21;;;;;;;21.30;13.73;;;13.30;99.90;;;;;;5052745;28;20676;-83
2021/09/22 03:13:48;;;;;;;22.70;12.63;;;13.30;99.90;;;;;;5053101;28;20219;-82
2021/09/22 03:16:15;;;;;;;21.73;13.00;;;13.30;99.90;;;;;;5051396;28;20207;-82
2021/09/22 03:18:42;;;;;;;22.17;13.03;;;13.30;99.90;;;;;;5052241;28;20230;-82
2021/09/22 03:21:09;;;;;;;21.77;13.37;;;13.30;99.90;;;;;;5051154;28;20202;-82
2021/09/22 03:23:38;;;;;;;24.87;13.73;;;13.40;99.90;;;;;;5052039;28;20249;-83
2021/09/22 03:26:06;;;;;;;20.43;13.23;;;13.40;99.90;;;;;;5049614;28;20253;-82
2021/09/22 03:28:33;;;;;;;21.47;12.87;;;13.40;99.90;;;;;;5050949;28;20227;-82
2021/09/22 03:31:00;;;;;;;20.57;13.77;;;13.20;99.90;;;;;;5054056;28;20258;-82
2021/09/22 03:33:28;;;;;;;23.00;14.93;;;13.40;99.90;;;;;;5054941;28;20210;-82
2021/09/22 03:35:55;;;;;;;22.83;13.87;;;13.40;99.90;;;;;;5055991;28;20254;-83
2021/09/22 03:38:23;;;;;;;20.03;13.00;;;13.40;99.90;;;;;;5056931;28;20642;-82
2021/09/22 03:40:52;;;;;;;22.23;13.50;;;13.40;99.90;;;;;;5055461;28;20207;-82
2021/09/22 03:43:19;;;;;;;22.60;14.43;;;13.40;99.90;;;;;;5055169;28;20207;-82
2021/09/22 03:45:47;;;;;;;25.57;17.67;;;13.40;99.90;;;;;;5053537;28;20667;-82
2021/09/22 03:48:14;;;;;;;25.17;14.90;;;13.40;99.90;;;;;;5054612;28;20250;-83
2021/09/22 03:50:41;;;;;;;22.77;14.10;;;13.30;99.90;;;;;;5054581;28;20269;-82
2021/09/22 03:53:08;;;;;;;22.83;15.13;;;13.30;99.90;;;;;;5054475;28;20222;-82
2021/09/22 03:55:35;;;;;;;24.40;14.47;;;13.30;99.90;;;;;;5053999;28;20237;-83
2021/09/22 03:58:04;;;;;;;24.20;13.60;;;13.20;99.90;;;;;;5041094;28;20225;-83
2021/09/22 04:00:31;;;;;;;22.10;13.73;;;13.20;99.90;;;;;;5053528;28;21057;-83
2021/09/22 04:02:58;;;;;;;22.70;13.87;;;13.20;99.90;;;;;;5044621;28;20215;-83
2021/09/22 04:05:24;;;;;;;22.77;14.57;;;13.20;99.90;;;;;;5044915;28;20195;-82
2021/09/22 04:07:52;;;;;;;22.27;13.17;;;13.20;99.90;;;;;;5053768;28;20363;-82
2021/09/22 04:10:18;;;;;;;22.57;13.77;;;13.30;99.90;;;;;;5051009;28;20664;-82
2021/09/22 04:12:45;;;;;;;22.87;13.83;;;13.30;99.90;;;;;;5050598;28;20638;-82
2021/09/22 04:15:14;;;;;;;22.90;13.70;;;13.30;99.90;;;;;;5055411;28;20265;-82
2021/09/22 04:17:41;;;;;;;22.43;14.53;;;13.30;99.90;;;;;;5054058;28;20242;-82
2021/09/22 04:20:09;;;;;;;28.63;14.63;;;13.30;99.90;;;;;;5054211;28;20582;-82
2021/09/22 04:22:39;;;;;;;23.17;13.03;;;13.30;99.90;;;;;;5055221;28;20269;-82
2021/09/22 04:25:07;;;;;;;21.20;13.87;;;13.30;99.90;;;;;;5040926;28;20582;-83
2021/09/22 04:27:34;;;;;;;25.20;14.50;;;13.30;99.90;;;;;;5048096;28;20260;-82
2021/09/22 04:30:01;;;;;;;22.50;14.10;;;13.30;99.90;;;;;;5043830;28;20297;-82
2021/09/22 04:32:29;;;;;;;21.33;13.50;;;13.30;99.90;;;;;;5039769;28;20672;-82
2021/09/22 04:34:56;;;;;;;23.33;14.20;;;13.30;99.90;;;;;;5043021;28;20242;-82
2021/09/22 04:37:24;;;;;;;24.63;14.77;;;13.30;99.90;;;;;;5037381;28;20234;-82
2021/09/22 04:39:52;;;;;;;24.10;14.80;;;13.30;99.90;;;;;;5055488;28;20199;-85
2021/09/22 04:42:19;;;;;;;23.00;14.70;;;13.20;99.90;;;;;;5053556;28;20199;-82
2021/09/22 04:44:46;;;;;;;22.07;13.57;;;13.20;99.90;;;;;;5056034;28;20202;-82
2021/09/22 04:47:13;;;;;;;20.70;13.30;;;13.20;99.90;;;;;;5056097;28;20695;-83
2021/09/22 04:49:41;;;;;;;23.40;14.17;;;13.20;99.90;;;;;;5060307;28;20241;-81
2021/09/22 04:52:08;;;;;;;23.80;13.10;;;13.10;99.90;;;;;;5061883;28;20195;-81
2021/09/22 04:54:35;;;;;;;26.03;17.27;;;13.10;99.90;;;;;;5061970;28;20218;-81
2021/09/22 04:57:02;;;;;;;29.03;19.67;;;13.10;99.90;;;;;;5059961;28;20627;-81
2021/09/22 04:59:29;;;;;;;22.07;13.20;;;13.10;99.90;;;;;;5051412;28;20620;-81
2021/09/22 05:01:56;;;;;;;23.30;13.23;;;13.10;99.90;;;;;;5063716;28;20210;-81
2021/09/22 05:04:23;;;;;;;24.43;13.23;;;13.00;99.90;;;;;;5044001;28;20196;-81
2021/09/22 05:06:51;;;;;;;23.13;13.63;;;12.90;99.90;;;;;;5060659;28;20540;-81
2021/09/22 05:09:18;;;;;;;22.87;13.23;;;12.90;99.90;;;;;;5060376;28;20737;-81
2021/09/22 05:11:45;;;;;;;22.00;13.47;;;12.90;99.90;;;;;;5061687;28;20195;-81
2021/09/22 05:14:12;;;;;;;21.70;13.10;;;12.90;99.90;;;;;;5063192;28;20627;-81
2021/09/22 05:16:39;;;;;;;23.47;13.50;;;12.90;99.90;;;;;;5062771;28;20254;-81
2021/09/22 05:19:06;;;;;;;21.20;12.67;;;12.90;99.90;;;;;;5062546;28;20229;-81
2021/09/22 05:21:33;;;;;;;21.33;13.23;;;12.90;99.90;;;;;;5061438;28;20234;-81
2021/09/22 05:24:01;;;;;;;20.97;13.27;;;13.00;99.90;;;;;;5062224;28;20721;-81
2021/09/22 05:26:28;;;;;;;21.47;12.47;;;13.00;99.90;;;;;;5062382;28;20257;-81
2021/09/22 05:28:55;;;;;;;22.47;12.07;;;12.90;99.90;;;;;;5060880;28;20198;-81
2021/09/22 05:31:22;;;;;;;21.50;12.50;;;13.00;99.90;;;;;;5061835;28;20257;-81
2021/09/22 05:33:49;;;;;;;19.83;11.33;;;13.10;99.90;;;;;;5060590;28;20234;-81
2021/09/22 05:36:16;;;;;;;22.30;11.77;;;13.00;99.90;;;;;;5060108;28;20211;-81
2021/09/22 05:38:43;;;;;;;23.50;12.33;;;13.00;99.90;;;;;;5058173;28;20230;-81
2021/09/22 05:41:11;;;;;;;19.67;11.63;;;13.00;99.90;;;;;;5064536;28;20198;-81
2021/09/22 05:43:38;;;;;;;18.10;10.87;;;12.90;99.90;;;;;;5062972;28;20231;-81
2021/09/22 05:46:05;;;;;;;16.67;10.73;;;12.90;99.90;;;;;;5060040;28;20249;-81
2021/09/22 05:48:32;;;;;;;17.60;10.77;;;13.00;99.90;;;;;;5061586;28;20195;-81
2021/09/22 05:50:59;;;;;;;18.33;10.77;;;13.00;99.90;;;;;;5059517;28;20242;-81
2021/09/22 05:53:25;;;;;;;19.13;10.97;;;12.90;99.90;;;;;;5058526;28;20202;-81
2021/09/22 05:55:52;;;;;;;18.80;11.33;;;13.00;99.90;;;;;;5060825;28;20215;-81
2021/09/22 05:58:21;;;;;;;18.37;10.53;;;13.00;99.90;;;;;;5055898;28;20725;-81
2021/09/22 06:00:48;;;;;;;21.70;11.83;;;13.00;99.90;;;;;;5053253;28;20207;-81
2021/09/22 06:03:15;;;;;;;22.10;12.00;;;13.10;99.90;;;;;;5053362;28;20207;-81
2021/09/22 06:05:42;;;;;;;19.87;12.57;;;13.10;99.90;;;;;;5053503;28;20652;-81
2021/09/22 06:08:09;;;;;;;20.43;11.77;;;13.20;99.90;;;;;;5059893;28;20703;-81
2021/09/22 06:10:37;;;;;;;22.10;12.73;;;13.30;99.90;;;;;;5059396;28;20227;-81
2021/09/22 06:13:04;;;;;;;22.53;12.50;;;13.40;99.90;;;;;;5061166;28;20203;-81
2021/09/22 06:15:33;;;;;;;19.23;12.17;;;13.40;99.90;;;;;;5059417;28;20237;-81
2021/09/22 06:18:00;;;;;;;21.60;12.87;;;13.50;99.90;;;;;;5059737;28;20627;-82
2021/09/22 06:20:27;;;;;;;20.70;13.27;;;13.50;99.90;;;;;;5057906;28;20187;-81
2021/09/22 06:22:54;;;;;;;20.40;13.20;;;13.60;99.90;;;;;;5058731;28;20285;-81
2021/09/22 06:25:22;;;;;;;23.17;14.37;;;13.60;99.90;;;;;;5058122;28;20195;-81
2021/09/22 06:27:49;;;;;;;22.37;13.97;;;13.70;99.90;;;;;;5058162;28;20219;-81
2021/09/22 06:30:17;;;;;;;20.47;13.67;;;13.70;99.90;;;;;;5058598;28;20560;-81
2021/09/22 06:32:45;;;;;;;20.80;13.17;;;13.70;99.90;;;;;;5057542;28;20647;-81
2021/09/22 06:35:12;;;;;;;22.73;14.07;;;13.80;99.90;;;;;;5058161;28;20214;-81
2021/09/22 06:37:39;;;;;;;27.53;13.57;;;13.90;99.90;;;;;;5057790;28;20247;-81
2021/09/22 06:40:07;;;;;;;23.00;13.43;;;13.90;99.90;;;;;;5057827;28;20703;-81
2021/09/22 06:42:34;;;;;;;23.43;14.57;;;14.00;99.90;;;;;;5057617;28;20272;-81
2021/09/22 06:45:01;;;;;;;29.43;14.77;;;14.10;99.90;;;;;;5053985;28;20260;-81
2021/09/22 06:47:29;;;;;;;26.30;14.07;;;14.20;99.90;;;;;;5055047;28;20288;-81
2021/09/22 06:49:57;;;;;;;24.83;14.33;;;14.30;99.90;;;;;;5054807;28;22101;-81
2021/09/22 06:52:24;;;;;;;23.57;14.33;;;14.30;99.90;;;;;;5055120;28;20297;-81
2021/09/22 06:54:51;;;;;;;22.83;13.80;;;14.40;99.90;;;;;;5053841;28;20838;-81
2021/09/22 06:57:18;;;;;;;25.73;14.43;;;14.40;99.90;;;;;;5053596;28;20679;-81
2021/09/22 06:59:45;;;;;;;22.07;14.33;;;14.50;99.90;;;;;;5051838;28;20245;-81
2021/09/22 07:02:12;;;;;;;20.03;13.53;;;14.50;99.90;;;;;;5042524;28;20258;-81
2021/09/22 07:04:39;;;;;;;23.10;15.07;;;14.60;99.90;;;;;;5053762;28;20617;-81
2021/09/22 07:07:07;;;;;;;21.67;14.00;;;14.60;99.90;;;;;;5060633;28;20288;-81
2021/09/22 07:09:34;;;;;;;24.63;14.60;;;14.70;99.90;;;;;;5059563;28;20241;-81
2021/09/22 07:12:01;;;;;;;23.60;13.93;;;14.80;99.90;;;;;;5060808;28;20238;-81
2021/09/22 07:14:28;;;;;;;25.17;14.32;;;14.80;99.90;;;;;;5060576;28;20203;-81
2021/09/22 07:16:55;;;;;;;20.70;13.17;;;14.90;99.90;;;;;;5059903;28;20241;-81
2021/09/22 07:19:22;;;;;;;20.80;14.10;;;15.00;99.90;;;;;;5060412;28;20199;-81
2021/09/22 07:21:49;;;;;;;23.27;13.87;;;15.00;99.90;;;;;;5060554;28;20225;-81
2021/09/22 07:24:17;;;;;;;22.50;13.83;;;15.00;99.90;;;;;;5060878;28;20242;-81
2021/09/22 07:26:44;;;;;;;23.43;13.47;;;15.00;99.90;;;;;;5058848;28;20227;-81
2021/09/22 07:29:11;;;;;;;20.70;13.52;;;15.00;99.90;;;;;;5060126;28;20190;-82
2021/09/22 07:31:38;;;;;;;25.67;13.97;;;15.10;99.90;;;;;;5061365;28;20250;-82
2021/09/22 07:34:05;;;;;;;20.33;13.63;;;15.10;99.90;;;;;;5060268;28;20211;-81
2021/09/22 07:36:34;;;;;;;21.73;13.23;;;15.10;99.90;;;;;;5061909;28;20261;-82
2021/09/22 07:39:01;;;;;;;20.53;12.77;;;15.20;99.90;;;;;;5057414;28;20205;-82
2021/09/22 07:41:29;;;;;;;19.90;12.33;;;15.20;99.90;;;;;;5059081;28;20198;-81
2021/09/22 07:43:56;;;;;;;19.95;12.63;;;15.20;99.90;;;;;;5061124;28;20222;-82
2021/09/22 07:46:23;;;;;;;20.33;13.05;;;15.30;99.90;;;;;;5059381;28;20725;-81
2021/09/22 07:48:50;;;;;;;19.70;12.63;;;15.30;99.90;;;;;;5061490;28;20222;-82
2021/09/22 07:51:17;;;;;;;20.10;11.95;;;15.30;99.90;;;;;;5056677;28;20227;-82
2021/09/22 07:53:44;;;;;;;21.88;12.40;;;15.40;99.90;;;;;;5053631;28;20243;-82
2021/09/22 07:56:11;;;;;;;17.95;12.88;;;15.40;99.90;;;;;;5055877;28;20594;-82
2021/09/22 07:58:39;;;;;;;21.77;11.60;;;15.40;99.90;;;;;;5059030;28;20206;-82
2021/09/22 08:01:06;;;;;;;21.02;11.77;;;15.60;99.90;;;;;;5059531;28;20195;-82
2021/09/22 08:03:33;;;;;;;18.80;11.40;;;15.70;99.90;;;;;;5057751;28;20203;-82
2021/09/22 08:06:00;;;;;;;17.75;10.35;;;15.80;99.90;;;;;;5059427;28;20237;-82
2021/09/22 08:08:27;;;;;;;19.05;11.00;;;15.80;99.90;;;;;;5059699;28;20252;-82
2021/09/22 08:10:54;;;;;;;18.27;10.40;;;15.90;99.90;;;;;;5057855;28;20597;-82
2021/09/22 08:13:21;;;;;;;20.08;12.25;;;15.90;99.90;;;;;;5056370;28;20245;-82
2021/09/22 08:15:49;;;;;;;21.08;12.60;;;16.00;99.90;;;;;;5058949;28;20609;-82
2021/09/22 08:18:16;;;;;;;22.90;12.95;;;16.00;99.90;;;;;;5059592;28;20214;-82
2021/09/22 08:20:43;;;;;;;19.35;11.73;;;15.90;99.90;;;;;;5059650;28;20211;-82
2021/09/22 08:23:11;;;;;;;23.15;12.65;;;15.90;99.90;;;;;;5064533;28;20934;-82
2021/09/22 08:25:38;;;;;;;21.65;12.48;;;15.90;99.90;;;;;;5065341;28;20273;-82
2021/09/22 08:28:05;;;;;;;18.90;11.82;;;16.10;99.90;;;;;;5063810;28;20219;-81
2021/09/22 08:30:32;;;;;;;20.23;11.68;;;16.00;99.90;;;;;;5064086;28;20230;-82
2021/09/22 08:33:01;;;;;;;18.30;11.18;;;16.10;99.90;;;;;;5060264;28;20199;-82
2021/09/22 08:35:29;;;;;;;22.92;11.88;;;16.10;99.90;;;;;;5059409;28;20264;-82
2021/09/22 08:37:56;;;;;;;20.95;11.93;;;16.30;99.90;;;;;;5063173;28;20253;-81
2021/09/22 08:40:22;;;;;;;18.88;10.50;;;16.30;99.90;;;;;;5061118;28;20206;-83
2021/09/22 08:42:50;;;;;;;20.42;10.75;;;16.30;99.90;;;;;;5063618;28;20198;-82
2021/09/22 08:45:17;;;;;;;19.70;10.95;;;16.40;99.90;;;;;;5061514;28;20225;-82
2021/09/22 08:47:45;;;;;;;18.55;10.70;;;16.30;99.90;;;;;;5061586;28;20561;-82
2021/09/22 08:50:15;;;;;;;20.25;11.52;;;16.30;99.90;;;;;;5061252;28;20199;-81
2021/09/22 08:52:44;;;;;;;17.95;11.05;;;16.40;99.90;;;;;;5053877;28;20199;-82
2021/09/22 08:55:11;;;;;;;17.75;10.88;;;16.30;99.90;;;;;;5056198;28;20214;-82
2021/09/22 08:57:39;;;;;;;17.98;11.52;;;16.50;99.90;;;;;;5040588;28;20216;-82
2021/09/22 09:00:09;;;;;;;20.30;10.77;;;16.50;99.90;;;;;;5052954;28;20207;-81
2021/09/22 09:02:39;;;;;;;19.17;11.02;;;16.40;99.90;;;;;;5055364;28;20666;-81
2021/09/22 09:05:08;;;;;;;17.40;10.68;;;16.30;99.90;;;;;;5054100;28;20271;-81
2021/09/22 09:07:47;;;;;;;20.35;11.23;;;16.30;99.90;;;;;;5052826;28;20756;-82
2021/09/22 09:10:14;;;;;;;20.15;12.75;;;16.20;99.90;;;;;;5050152;28;20203;-82
2021/09/22 09:12:42;;;;;;;21.63;11.60;;;16.30;99.90;;;;;;5052059;28;20325;-82
2021/09/22 09:15:11;;;;;;;19.40;10.68;;;16.40;99.90;;;;;;5053116;28;20226;-82
2021/09/22 09:17:42;;;;;;;19.65;12.07;;;16.40;99.90;;;;;;5050935;28;20308;-82
2021/09/22 09:20:18;;;;;;;21.52;11.48;;;16.50;99.90;;;;;;5052514;28;20203;-83
2021/09/22 09:23:07;;;;;;;15.05;10.35;;;16.60;99.90;;;;;;5053282;28;20206;-82
2021/09/22 09:25:36;;;;;;;16.63;10.02;;;17.00;99.90;;;;;;5053287;28;20234;-83
2021/09/22 09:28:20;;;;;;;18.38;10.20;;;16.90;99.90;;;;;;5053136;28;20525;-82
2021/09/22 09:30:49;;;;;;;13.65;9.57;;;16.90;99.90;;;;;;5052170;28;20298;-82
2021/09/22 09:33:31;;;;;;;13.68;8.07;;;16.90;99.90;;;;;;5051992;28;20226;-82
2021/09/22 09:36:00;;;;;;;12.77;8.45;;;16.80;99.90;;;;;;5054570;28;20313;-82
2021/09/22 09:38:33;;;;;;;16.05;9.35;;;16.70;99.90;;;;;;5053283;28;20207;-82
2021/09/22 09:41:00;;;;;;;16.00;9.32;;;16.70;99.90;;;;;;5053587;28;20658;-82
2021/09/22 09:43:27;;;;;;;15.52;9.85;;;16.90;99.90;;;;;;5052742;28;20241;-82
2021/09/22 09:45:53;;;;;;;13.73;8.05;;;17.30;99.90;;;;;;5050558;28;20250;-82
2021/09/22 09:48:24;;;;;;;14.70;8.85;;;17.50;99.90;;;;;;5052972;28;20250;-82
2021/09/22 09:50:53;;;;;;;13.07;8.25;;;17.70;99.90;;;;;;5051859;28;20207;-82
2021/09/22 09:53:24;;;;;;;12.50;7.25;;;17.80;99.90;;;;;;5051917;28;20294;-81
2021/09/22 09:55:53;;;;;;;13.85;7.40;;;17.30;99.90;;;;;;5048207;28;20294;-82
2021/09/22 09:58:21;;;;;;;11.93;6.60;;;17.00;99.90;;;;;;5053700;28;20310;-82
2021/09/22 10:00:50;;;;;;;11.15;6.15;;;17.00;99.90;;;;;;5051061;28;20626;-82
2021/09/22 10:03:19;;;;;;;12.05;6.60;;;17.10;99.90;;;;;;5047587;28;20219;-82
2021/09/22 10:05:47;;;;;;;12.40;6.68;;;17.00;99.90;;;;;;5041903;28;20261;-82
2021/09/22 10:08:15;;;;;;;12.20;6.10;;;17.10;99.90;;;;;;5049372;28;20250;-82
2021/09/22 10:10:43;;;;;;;10.88;5.90;;;17.30;99.90;;;;;;5047741;28;20206;-82
2021/09/22 10:13:12;;;;;;;9.80;6.03;;;17.20;99.90;;;;;;5050462;28;20352;-82
2021/09/22 10:15:42;;;;;;;12.68;6.95;;;17.30;99.90;;;;;;5050451;28;20743;-82
2021/09/22 10:18:10;;;;;;;8.88;6.10;;;17.20;99.90;;;;;;5049766;28;20274;-82
2021/09/22 10:20:39;;;;;;;10.30;5.45;;;17.20;99.90;;;;;;5048551;28;20314;-82
2021/09/22 10:23:06;;;;;;;7.60;4.72;;;17.10;99.90;;;;;;5051508;28;20257;-82
2021/09/22 10:25:33;;;;;;;11.48;4.00;;;17.10;99.90;;;;;;5048079;28;20282;-82
2021/09/22 10:28:01;;;;;;;5.60;3.83;;;17.00;99.90;;;;;;5048448;28;20254;-82
2021/09/22 10:30:39;;;;;;;6.95;3.50;;;17.20;99.90;;;;;;5048933;28;20230;-82
2021/09/22 10:33:07;;;;;;;4.70;3.78;;;17.30;99.90;;;;;;5048188;28;20285;-81
2021/09/22 10:35:39;;;;;;;5.75;3.60;;;17.50;99.90;;;;;;5050515;28;20736;-82
2021/09/22 10:38:48;;;;;;;4.40;3.13;;;18.00;99.90;;;;;;5053646;28;20249;-80
2021/09/22 10:41:30;;;;;;;6.40;3.40;;;18.00;99.90;;;;;;5047855;28;20646;-81
2021/09/22 10:43:58;;;;;;;3.95;2.92;;;17.70;99.90;;;;;;5049819;28;20207;-81
2021/09/22 10:46:30;;;;;;;5.72;2.65;;;17.70;99.90;;;;;;5042451;28;20227;-82
2021/09/22 10:49:15;;;;;;;4.28;3.00;;;17.70;99.90;;;;;;5054134;28;20650;-82
2021/09/22 10:51:48;;;;;;;5.97;3.53;;;17.70;99.90;;;;;;5046387;28;20313;-82
2021/09/22 10:54:19;;;;;;;3.78;2.80;;;17.70;99.90;;;;;;5042811;28;20204;-81
2021/09/22 10:56:58;;;;;;;5.40;2.95;;;17.60;99.90;;;;;;5053474;28;20222;-81
2021/09/22 10:59:35;;;;;;;5.80;2.90;;;17.70;99.90;;;;;;5044053;28;20243;-81
2021/09/22 11:02:05;;;;;;;5.10;3.05;;;17.90;99.90;;;;;;5043064;28;20202;-82
2021/09/22 11:05:01;;;;;;;8.07;3.13;;;18.00;99.90;;;;;;5049421;28;20702;-82
2021/09/22 11:08:03;;;;;;;6.30;3.15;;;18.90;99.90;;;;;;5048160;28;20215;-84
2021/09/22 11:10:42;;;;;;;5.65;2.83;;;19.10;99.90;;;;;;5048661;28;20199;-82
2021/09/22 11:13:38;;;;;;;6.35;3.10;;;18.80;99.90;;;;;;5044060;28;20224;-81
2021/09/22 11:16:12;;;;;;;3.75;2.60;;;18.50;99.90;;;;;;5048319;28;21426;-82
2021/09/22 11:18:42;;;;;;;7.72;2.95;;;18.40;99.90;;;;;;5051414;28;20238;-82
2021/09/22 11:21:09;;;;;;;5.15;2.88;;;18.40;99.90;;;;;;5050324;28;20518;-82
2021/09/22 11:23:37;;;;;;;5.97;2.88;;;18.60;99.90;;;;;;5053779;28;20215;-82
2021/09/22 11:26:05;;;;;;;8.93;3.00;;;19.00;99.90;;;;;;5055831;28;20203;-82
2021/09/22 11:28:32;;;;;;;3.83;2.90;;;19.40;99.90;;;;;;5051437;28;20733;-82
2021/09/22 11:30:59;;;;;;;4.43;2.85;;;19.90;99.90;;;;;;5049335;28;20207;-81
2021/09/22 11:33:28;;;;;;;3.97;2.40;;;19.90;99.90;;;;;;5053083;28;20490;-82
2021/09/22 11:36:06;;;;;;;4.65;2.63;;;20.10;99.90;;;;;;5053552;28;20432;-82
2021/09/22 11:38:33;;;;;;;3.63;2.25;;;20.40;99.90;;;;;;5051750;28;20249;-82
2021/09/22 11:41:00;;;;;;;3.58;2.55;;;21.10;99.90;;;;;;5052586;28;20481;-82
2021/09/22 11:43:27;;;;;;;6.60;3.17;;;20.80;99.90;;;;;;5060174;28;20227;-82
2021/09/22 11:45:58;;;;;;;5.53;3.08;;;20.40;99.90;;;;;;5056918;28;20282;-82
2021/09/22 11:48:28;;;;;;;4.82;3.20;;;20.10;99.90;;;;;;5052965;28;20663;-81
2021/09/22 11:50:58;;;;;;;4.55;3.33;;;19.70;99.90;;;;;;5056298;28;20555;-82
2021/09/22 11:53:26;;;;;;;5.68;3.63;;;19.50;99.90;;;;;;5053109;28;20683;-81
2021/09/22 11:55:54;;;;;;;4.72;3.70;;;19.40;99.90;;;;;;5049915;28;20218;-82
2021/09/22 11:58:23;;;;;;;6.65;3.72;;;19.50;99.90;;;;;;5052383;28;20241;-82
2021/09/22 12:00:51;;;;;;;6.82;3.83;;;20.00;99.90;;;;;;5056457;28;20210;-82
2021/09/22 12:03:22;;;;;;;5.45;3.53;;;19.90;99.90;;;;;;5049043;28;20199;-81
2021/09/22 12:06:05;;;;;;;6.15;3.38;;;19.40;99.90;;;;;;5042543;28;20211;-82
2021/09/22 12:08:32;;;;;;;5.80;3.80;;;19.90;99.90;;;;;;5053972;28;20238;-81
2021/09/22 12:11:00;;;;;;;6.75;3.85;;;19.40;99.90;;;;;;5044156;28;20671;-81
2021/09/22 12:13:27;;;;;;;5.68;3.60;;;19.10;99.90;;;;;;5050056;28;20211;-82
2021/09/22 12:15:55;;;;;;;7.90;4.05;;;19.50;99.90;;;;;;5052913;28;20190;-81
2021/09/22 12:18:22;;;;;;;6.85;4.30;;;20.40;99.90;;;;;;5044793;28;20440;-82
2021/09/22 12:20:49;;;;;;;7.55;4.35;;;19.90;99.90;;;;;;5056139;28;20210;-81
2021/09/22 12:23:25;;;;;;;7.35;4.35;;;19.70;99.90;;;;;;5056475;28;20199;-81
2021/09/22 12:25:52;;;;;;;7.20;4.05;;;19.50;99.90;;;;;;5056212;28;20203;-82
2021/09/22 12:28:24;;;;;;;7.13;4.45;;;19.70;99.90;;;;;;5053299;28;20365;-82
2021/09/22 12:30:51;;;;;;;5.20;4.35;;;20.10;99.90;;;;;;5051765;28;20207;-81
2021/09/22 12:33:21;;;;;;;8.13;4.30;;;19.70;99.90;;;;;;5055293;28;20261;-81
2021/09/22 12:35:48;;;;;;;6.80;4.13;;;20.00;99.90;;;;;;5061231;28;20418;-81
2021/09/22 12:38:18;;;;;;;7.65;3.85;;;19.70;99.90;;;;;;5056739;28;20258;-81